Latest Weather Observations for Cape Naturaliste

IDW60801

Issued at 9:02 pm WST Saturday 13 February 2016 (issued every 30 minutes, with the page automatically refreshed every 10 minutes)

About weather observations | Map of weather stations | Latest weather observations for WA | Other Formats
Station Details ID: 009519 Name: CAPE NATURALISTE Lat: -33.54 Lon: 115.02 Height: 109.0 m
Data from the previous 72 hours. | See also: Recent months at Cape Naturaliste
Date/Time
WST
Temp
°C
App
Temp
°C
Dew
Point
Rel
Hum
%
Delta-T
°C
Wind Press
QNH
hPa
Press
MSL
hPa
Rain
since 9 am
mm
Dir
 
Spd
km/h
Gust
km/h
Spd
kts
Gust
kts
13/09:00pm 16.0 8.5 9.4 65 3.4 SSE 39 56 21 30 1022.9 1022.5 0.0
13/08:30pm 16.2 9.1 9.6 65 3.4 SSE 37 56 20 30 1022.7 1022.3 0.0
13/08:00pm 16.5 10.2 9.7 64 3.6 S 33 52 18 28 1022.7 1022.3 0.0
13/07:50pm 16.7 10.6 9.6 63 3.7 S 32 52 17 28 1022.6 1022.2 0.0
13/07:30pm 17.1 10.9 9.5 61 4.0 S 32 46 17 25 1022.3 1021.9 0.0
13/07:00pm 18.2 11.9 9.8 58 4.4 S 33 48 18 26 1022.0 1021.6 0.0
13/06:30pm 19.6 13.5 9.8 53 5.3 S 32 43 17 23 1021.7 1021.3 0.0
13/06:00pm 21.2 15.2 10.1 49 6.0 S 32 44 17 24 1021.4 1021.0 0.0
13/05:30pm 22.7 17.8 9.8 44 7.0 S 26 39 14 21 1021.1 1020.7 0.0
13/05:00pm 23.5 17.6 9.1 40 7.8 SSE 30 41 16 22 1020.9 1020.5 0.0
13/04:30pm 24.6 19.4 9.0 37 8.5 SSE 26 39 14 21 1021.2 1020.8 0.0
13/04:00pm 25.2 20.9 9.5 37 8.6 SSE 22 35 12 19 1021.4 1021.0 0.0
13/03:30pm 25.4 20.1 9.7 37 8.7 SSE 28 43 15 23 1021.5 1021.1 0.0
13/03:00pm 25.9 22.1 9.7 36 8.9 SSE 20 35 11 19 1021.7 1021.3 0.0
13/02:30pm 26.4 22.5 9.3 34 9.4 SSE 20 32 11 17 1021.7 1021.3 0.0
13/02:00pm 25.4 20.2 8.8 35 9.0 SSE 26 43 14 23 1022.0 1021.6 0.0
13/01:30pm 25.7 21.1 9.5 36 8.9 SSE 24 37 13 20 1022.3 1021.9 0.0
13/01:00pm 25.8 22.0 9.2 35 9.1 SSE 19 32 10 17 1022.5 1022.1 0.0
13/12:30pm 24.7 19.3 8.2 35 8.8 SSE 26 43 14 23 1022.9 1022.5 0.0
13/12:00pm 23.6 18.0 8.8 39 7.9 S 28 39 15 21 1023.4 1023.0 0.0
13/11:30am 23.4 18.2 8.7 39 7.9 SSE 26 37 14 20 1023.7 1023.3 0.0
13/11:00am 23.7 19.5 9.7 41 7.6 SSE 22 39 12 21 1023.9 1023.5 0.0
13/10:53am 22.7 17.1 8.8 41 7.4 SSE 28 46 15 25 1023.9 1023.5 0.0
13/10:30am 22.6 17.9 9.4 43 7.1 SSE 24 37 13 20 1024.2 1023.8 0.0
13/10:00am 20.6 15.3 8.6 46 6.3 SSE 26 37 14 20 1024.3 1023.9 0.0
13/09:30am 20.0 14.5 9.0 49 5.8 SE 28 43 15 23 1024.5 1024.1 0.0
13/09:00am 19.1 13.9 9.0 52 5.3 SSE 26 39 14 21 1024.5 1024.1 0.0
13/08:30am 18.7 14.7 9.2 54 5.0 SSE 20 32 11 17 1024.5 1024.1 0.0
13/08:00am 18.4 14.4 10.3 59 4.3 SE 22 30 12 16 1024.4 1024.0 0.0
13/07:30am 17.0 14.6 9.9 63 3.8 SSE 13 19 7 10 1024.3 1023.9 0.0
13/07:00am 16.1 13.1 9.1 63 3.6 SSE 15 20 8 11 1024.1 1023.7 0.0
13/06:30am 15.3 11.2 8.8 65 3.3 SSE 20 26 11 14 1023.7 1023.3 0.0
13/06:00am 14.7 10.7 8.4 66 3.2 SSE 19 24 10 13 1023.3 1022.9 0.0
13/05:30am 15.1 10.7 9.0 67 3.1 S 22 32 12 17 1022.9 1022.5 0.0
13/05:00am 14.4 9.5 8.6 68 2.9 S 24 30 13 16 1022.6 1022.2 0.0
13/04:30am 14.8 10.5 9.2 69 2.9 S 22 32 12 17 1022.3 1021.9 0.0
13/04:00am 14.8 11.1 9.6 71 2.7 SSE 19 24 10 13 1022.2 1021.8 0.0
13/03:30am 14.2 10.3 9.4 73 2.5 SSE 20 24 11 13 1021.9 1021.5 0.0
13/03:00am 14.7 10.5 9.9 73 2.5 SSE 22 28 12 15 1021.9 1021.5 0.0
13/02:30am 14.9 10.5 10.3 74 2.4 S 24 32 13 17 1021.7 1021.3 0.0
13/02:00am 15.3 10.6 10.7 74 2.4 S 26 35 14 19 1021.4 1021.0 0.0
13/01:30am 15.5 10.6 11.3 76 2.3 S 28 37 15 20 1021.3 1020.9 0.0
13/01:00am 15.6 11.3 12.0 79 2.0 S 26 33 14 18 1021.2 1020.8 0.0
13/12:30am 15.8 11.3 12.5 81 1.8 S 28 37 15 20 1021.1 1020.7 0.0
13/12:00am 16.0 11.9 12.7 81 1.8 SSE 26 35 14 19 1021.2 1020.8 0.0
 
Date/Time
WST
Temp
°C
App
Temp
°C
Dew
Point
Rel
Hum
%
Delta-T
°C
Wind Press
QNH
hPa
Press
MSL
hPa
Rain
since 9 am
mm
Dir
 
Spd
km/h
Gust
km/h
Spd
kts
Gust
kts
12/11:30pm 16.3 12.2 12.8 80 1.9 S 26 35 14 19 1021.1 1020.7 0.0
12/11:00pm 16.6 12.3 13.1 80 2.0 S 28 41 15 22 1021.2 1020.8 0.0
12/10:30pm 16.7 13.1 13.2 80 2.0 S 24 33 13 18 1021.2 1020.8 0.0
12/10:00pm 17.0 13.5 13.3 79 2.1 SSE 24 30 13 16 1021.2 1020.8 0.0
12/09:30pm 17.4 14.0 13.7 79 2.1 S 24 35 13 19 1021.2 1020.8 0.0
12/09:00pm 17.5 15.5 14.0 80 2.0 S 17 24 9 13 1021.1 1020.7 0.0
12/08:30pm 18.0 15.6 14.5 80 2.0 S 20 28 11 15 1020.8 1020.4 0.0
12/08:00pm 18.6 15.5 15.5 82 1.8 S 26 32 14 17 1020.3 1019.9 0.0
12/07:30pm 18.8 14.5 15.5 81 2.0 SSW 32 43 17 23 1019.9 1019.5 0.0
12/07:00pm 19.3 13.7 15.6 79 2.2 SSW 39 50 21 27 1019.4 1019.0 0.0
12/06:30pm 20.2 14.9 15.4 74 2.9 SSW 37 56 20 30 1019.1 1018.7 0.0
12/06:25pm 20.5 15.3 15.5 73 3.0 SSW 37 56 20 30 1019.0 1018.6 0.0
12/06:00pm 20.9 15.1 15.9 73 3.0 SSW 41 56 22 30 1018.7 1018.4 0.0
12/05:30pm 21.3 16.2 15.8 71 3.3 SSW 37 52 20 28 1018.6 1018.3 0.0
12/05:00pm 21.9 17.3 16.2 70 3.5 SSW 35 48 19 26 1018.4 1018.1 0.0
12/04:30pm 22.4 18.4 16.7 70 3.5 SSW 33 44 18 24 1018.4 1018.1 0.0
12/04:00pm 22.7 18.5 16.3 67 3.9 SSW 33 46 18 25 1018.2 1017.9 0.0
12/03:30pm 23.8 19.8 16.3 63 4.6 SSW 32 44 17 24 1018.3 1018.0 0.0
12/03:00pm 23.1 18.6 15.4 62 4.6 SW 33 44 18 24 1018.3 1018.0 0.0
12/02:30pm 23.9 19.9 16.2 62 4.7 SSW 32 43 17 23 1018.3 1018.0 0.0
12/02:00pm 23.7 19.4 15.5 60 4.9 SSW 32 39 17 21 1018.4 1018.1 0.0
12/01:30pm 24.2 19.7 15.4 58 5.3 SSW 33 46 18 25 1018.6 1018.3 0.0
12/01:00pm 23.8 19.6 15.6 60 5.0 SSW 32 43 17 23 1018.8 1018.5 0.0
12/12:30pm 24.0 20.2 15.8 60 5.0 SSW 30 35 16 19 1019.1 1018.7 0.0
12/12:00pm 24.0 20.4 15.2 58 5.3 SSW 28 39 15 21 1019.3 1018.9 0.0
12/11:30am 23.7 20.2 15.5 60 5.0 SSW 28 35 15 19 1019.6 1019.2 0.0
12/11:00am 22.4 18.4 15.3 64 4.2 SSW 30 41 16 22 1019.8 1019.4 0.0
12/10:30am 21.6 18.5 14.5 64 4.2 SSW 24 33 13 18 1020.0 1019.6 0.0
12/10:00am 21.0 18.1 13.9 64 4.1 SSW 22 28 12 15 1019.9 1019.5 0.0
12/09:30am 21.3 19.0 14.2 64 4.2 SSW 19 30 10 16 1019.6 1019.2 0.0
12/09:00am 20.1 17.3 13.3 65 3.9 S 20 30 11 16 1019.5 1019.1 0.0
12/08:30am 20.2 17.4 13.2 64 4.0 S 20 28 11 15 1019.6 1019.2 0.0
12/08:00am 19.4 16.8 13.8 70 3.2 SSE 20 28 11 15 1019.3 1018.9 0.0
12/07:30am 18.7 17.2 15.2 80 2.1 SSE 17 22 9 12 1019.2 1018.8 0.0
12/07:00am 16.3 13.8 13.4 83 1.6 SSE 19 22 10 12 1019.1 1018.7 0.0
12/06:30am 15.8 13.9 13.1 84 1.5 SSE 15 19 8 10 1018.7 1018.4 0.0
12/06:00am 15.8 13.1 12.9 83 1.6 SSE 19 24 10 13 1017.9 1017.6 0.0
12/05:30am 16.1 13.4 13.4 84 1.5 S 20 26 11 14 1017.4 1017.1 0.0
12/05:00am 16.0 13.2 13.3 84 1.5 S 20 28 11 15 1016.9 1016.6 0.0
12/04:30am 16.0 13.4 13.1 83 1.6 S 19 24 10 13 1016.8 1016.5 0.0
12/04:00am 16.4 13.9 13.5 83 1.6 SSE 19 28 10 15 1016.4 1016.0 0.0
12/03:30am 16.9 13.9 13.8 82 1.8 S 22 30 12 16 1015.7 1015.3 0.0
12/03:00am 17.2 13.3 14.3 83 1.7 S 28 39 15 21 1015.4 1015.0 0.0
12/02:30am 17.3 13.5 14.6 84 1.6 S 28 39 15 21 1015.4 1015.0 0.0
12/02:00am 17.0 14.8 14.3 84 1.6 S 19 28 10 15 1015.5 1015.1 0.0
12/01:30am 17.4 15.0 14.5 83 1.7 S 20 30 11 16 1015.7 1015.3 0.0
12/01:00am 17.7 14.8 15.0 84 1.6 S 24 33 13 18 1015.9 1015.5 0.0
12/12:30am 17.5 15.3 15.0 85 1.5 S 20 30 11 16 1016.1 1015.7 0.0
12/12:00am 17.7 15.2 15.1 85 1.5 S 22 33 12 18 1016.1 1015.7 0.0
 
Date/Time
WST
Temp
°C
App
Temp
°C
Dew
Point
Rel
Hum
%
Delta-T
°C
Wind Press
QNH
hPa
Press
MSL
hPa
Rain
since 9 am
mm
Dir
 
Spd
km/h
Gust
km/h
Spd
kts
Gust
kts
11/11:30pm 17.6 15.0 15.0 85 1.5 S 22 30 12 16 1016.1 1015.7 0.0
11/11:00pm 18.0 14.4 15.3 84 1.6 S 28 39 15 21 1016.1 1015.7 0.0
11/10:30pm 18.1 13.8 15.4 84 1.6 SSW 32 41 17 22 1015.9 1015.5 0.0
11/10:00pm 18.3 14.9 15.7 85 1.5 S 28 43 15 23 1015.8 1015.4 0.0
11/09:30pm 18.6 14.5 16.0 85 1.6 SSW 32 43 17 23 1015.5 1015.1 0.0
11/09:17pm 18.7 14.7 16.1 85 1.6 SSW 32 50 17 27 1015.3 1014.9 0.0
11/09:00pm 19.0 13.4 16.4 85 1.6 SSW 41 54 22 29 1015.0 1014.6 0.0
11/08:30pm 19.2 13.3 16.8 86 1.5 SSW 43 56 23 30 1014.6 1014.2 0.0
11/08:00pm 19.3 14.2 16.7 85 1.6 SSW 39 56 21 30 1014.4 1014.0 0.0
11/07:30pm 19.5 13.0 16.7 84 1.7 SSW 46 61 25 33 1014.0 1013.6 0.0
11/07:01pm 20.0 14.8 16.6 81 2.1 SSW 39 57 21 31 1013.6 1013.2 0.0
11/07:00pm 20.1 15.0 16.7 81 2.1 SSW 39 56 21 30 1013.6 1013.2 0.0
11/06:30pm 20.9 15.5 16.9 78 2.4 SSW 41 52 22 28 1013.1 1012.7 0.0
11/06:00pm 21.6 16.6 17.0 75 2.8 SSW 39 56 21 30 1012.7 1012.3 0.0
11/05:30pm 21.9 15.9 16.8 73 3.1 SSW 44 57 24 31 1012.3 1011.9 0.0
11/05:00pm 22.6 17.2 17.1 71 3.4 SSW 41 57 22 31 1012.1 1011.7 0.0
11/04:30pm 22.8 17.8 17.0 70 3.6 SSW 39 52 21 28 1011.9 1011.5 0.0
11/04:00pm 23.2 18.3 17.4 70 3.6 SSW 39 50 21 27 1012.0 1011.6 0.0
11/03:30pm 24.1 20.5 17.6 67 4.1 SSW 33 48 18 26 1011.9 1011.5 0.0
11/03:00pm 23.6 20.0 17.1 67 4.0 SW 32 43 17 23 1012.3 1011.9 0.0
11/02:30pm 25.3 22.9 18.2 64 4.5 SW 28 37 15 20 1012.6 1012.2 0.0
11/02:00pm 24.8 22.4 17.3 63 4.7 SW 26 33 14 18 1012.7 1012.3 0.0
11/01:30pm 25.8 23.8 18.2 63 4.8 SSW 26 35 14 19 1013.0 1012.6 0.0
11/01:00pm 25.2 22.8 17.4 62 4.9 SSW 26 35 14 19 1013.2 1012.8 0.0
11/12:30pm 25.5 23.5 17.4 61 5.1 SW 24 32 13 17 1013.3 1012.9 0.0
11/12:00pm 26.0 24.8 17.4 59 5.4 SW 20 28 11 15 1013.5 1013.1 0.0
11/11:30am 26.7 26.2 17.8 58 5.6 SW 17 24 9 13 1013.5 1013.1 0.0
11/11:00am 25.5 24.1 16.9 59 5.3 SW 20 26 11 14 1013.7 1013.3 0.0
11/10:30am 25.9 25.4 17.0 58 5.6 SW 15 19 8 10 1014.1 1013.7 0.0
11/10:00am 25.9 25.4 17.0 58 5.6 SW 15 20 8 11 1014.1 1013.7 0.0
11/09:30am 27.1 28.5 17.8 56 5.9 SW 7 15 4 8 1014.2 1013.8 0.0
11/09:00am 25.7 25.8 17.4 60 5.2 SSE 13 17 7 9 1014.1 1013.7 0.0
11/08:30am 24.2 22.8 16.5 62 4.7 SE 19 26 10 14 1013.8 1013.4 0.0
11/08:00am 22.7 20.6 16.3 67 3.9 SE 22 30 12 16 1013.9 1013.5 0.0
11/07:30am 21.1 17.8 16.1 73 3.0 SE 28 35 15 19 1013.5 1013.1 0.0
11/07:00am 20.0 17.1 16.0 78 2.4 SE 26 35 14 19 1013.3 1012.9 0.0
11/06:30am 18.9 15.1 15.8 82 1.8 SE 30 37 16 20 1013.3 1012.9 0.0
11/06:00am 18.3 14.7 15.2 82 1.8 SE 28 35 15 19 1012.9 1012.5 0.0
11/05:30am 18.6 15.8 15.3 81 1.9 SE 24 33 13 18 1012.7 1012.3 0.0
11/05:00am 19.0 16.3 15.7 81 2.0 SE 24 32 13 17 1012.4 1012.0 0.0
11/04:30am 19.0 16.7 15.7 81 2.0 SSE 22 30 12 16 1012.3 1011.9 0.0
11/04:00am 19.2 17.4 15.9 81 2.0 SSE 20 30 11 16 1012.2 1011.8 0.0
11/03:30am 19.4 17.6 16.1 81 2.0 SSE 20 28 11 15 1012.2 1011.8 0.0
11/03:00am 19.4 18.1 15.9 80 2.1 SSE 17 24 9 13 1012.1 1011.7 0.0
11/02:30am 19.7 18.5 16.0 79 2.2 SSE 17 24 9 13 1012.2 1011.8 0.0
11/02:00am 20.0 19.5 16.0 78 2.4 S 13 20 7 11 1012.4 1012.0 0.0
11/01:30am 20.5 19.8 16.3 77 2.5 SSE 15 22 8 12 1012.6 1012.2 0.0
11/01:00am 20.9 19.5 16.5 76 2.7 SSE 19 26 10 14 1012.7 1012.3 0.0
11/12:30am 21.2 19.8 17.0 77 2.6 SSE 20 28 11 15 1012.7 1012.3 0.0
11/12:00am 21.3 20.3 17.9 81 2.1 SSE 20 30 11 16 1012.9 1012.5 0.0
 
Date/Time
WST
Temp
°C
App
Temp
°C
Dew
Point
Rel
Hum
%
Delta-T
°C
Wind Press
QNH
hPa
Press
MSL
hPa
Rain
since 9 am
mm
Dir
 
Spd
km/h
Gust
km/h
Spd
kts
Gust
kts
10/11:30pm 20.2 19.4 17.0 82 2.0 S 17 24 9 13 1013.2 1012.8 0.0
10/11:00pm 19.7 18.3 16.5 82 1.9 SSW 19 24 10 13 1013.5 1013.1 0.0
10/10:30pm 20.3 19.5 17.1 82 2.0 SSW 17 22 9 12 1013.7 1013.3 0.0
10/10:00pm 20.2 19.7 16.8 81 2.1 SW 15 19 8 10 1013.8 1013.4 0.0
10/09:30pm 20.7 19.3 17.1 80 2.2 SW 20 24 11 13 1013.9 1013.5 0.0

Other Formats:

Comma delimited format used in spreadsheet applications
http://www.bom.gov.au/fwo/IDW60801/IDW60801.94600.axf

JavaScript Object Notation format (JSON) in row-major order
http://www.bom.gov.au/fwo/IDW60801/IDW60801.94600.json